createdAt,value
2019-03-12T00:00:34.684Z,3.40
2019-03-12T00:05:25.900Z,4.70
2019-03-12T00:10:17.188Z,3.80
2019-03-12T00:15:08.447Z,5.10
2019-03-12T00:20:00.405Z,4.00
2019-03-12T00:24:51.625Z,4.67
2019-03-12T00:29:42.849Z,4.10
2019-03-12T00:34:34.842Z,4.27
2019-03-12T00:39:26.070Z,4.37
2019-03-12T00:44:17.312Z,3.73
2019-03-12T00:49:08.564Z,3.83
2019-03-12T00:54:00.612Z,5.45
2019-03-12T00:58:51.830Z,5.50
2019-03-12T01:03:43.192Z,5.40
2019-03-12T01:08:35.157Z,5.77
2019-03-12T01:13:26.441Z,5.80
2019-03-12T01:18:17.684Z,5.63
2019-03-12T01:23:09.674Z,4.80
2019-03-12T01:28:00.906Z,5.97
2019-03-12T01:32:52.170Z,5.80
2019-03-12T01:37:43.386Z,7.50
2019-03-12T01:42:34.645Z,6.77
2019-03-12T01:47:25.895Z,6.63
2019-03-12T01:52:17.168Z,6.47
2019-03-12T01:57:08.371Z,6.97
2019-03-12T02:01:59.614Z,8.00
2019-03-12T02:06:50.827Z,7.70
2019-03-12T02:11:42.047Z,7.57
2019-03-12T02:16:34.928Z,7.30
2019-03-12T02:21:24.643Z,10.60
2019-03-12T02:26:15.914Z,9.25
2019-03-12T02:31:07.161Z,8.90
2019-03-12T02:35:58.430Z,8.53
2019-03-12T02:40:49.639Z,9.30
2019-03-12T02:45:40.879Z,9.03
2019-03-12T02:50:32.237Z,9.73
2019-03-12T02:55:24.206Z,10.30
2019-03-12T03:00:16.199Z,9.20
2019-03-12T03:05:08.264Z,10.00
2019-03-12T03:09:59.513Z,9.27
2019-03-12T03:14:50.766Z,12.00
2019-03-12T03:19:42.736Z,10.57
2019-03-12T03:24:34.007Z,9.50
2019-03-12T03:29:25.213Z,11.10
2019-03-12T03:34:16.472Z,10.37
2019-03-12T03:39:07.823Z,10.20
2019-03-12T03:43:59.779Z,9.67
2019-03-12T03:48:51.086Z,9.95
2019-03-12T03:53:43.046Z,9.50
2019-03-12T03:58:35.051Z,11.65
2019-03-12T04:03:26.279Z,9.57
2019-03-12T04:08:17.531Z,8.90
2019-03-12T04:13:08.779Z,8.83
2019-03-12T04:17:59.987Z,8.53
2019-03-12T04:22:52.060Z,8.07
2019-03-12T04:27:44.077Z,8.67
2019-03-12T04:32:35.369Z,9.03
2019-03-12T04:37:26.572Z,9.80
2019-03-12T04:42:17.850Z,10.30
2019-03-12T04:47:09.029Z,8.50
2019-03-12T04:52:00.314Z,7.73
2019-03-12T04:56:51.521Z,7.30
2019-03-12T05:01:42.789Z,7.27
2019-03-12T05:06:34.734Z,7.77
2019-03-12T05:11:26.777Z,6.60
2019-03-12T05:16:18.026Z,6.87
2019-03-12T05:21:10.048Z,7.90
2019-03-12T05:26:01.314Z,6.77
2019-03-12T05:30:52.536Z,7.30
2019-03-12T05:35:44.508Z,6.30
2019-03-12T05:40:35.966Z,6.20
2019-03-12T05:45:27.140Z,5.93
2019-03-12T05:50:19.204Z,5.93
2019-03-12T05:55:11.406Z,6.03
2019-03-12T06:00:02.773Z,6.00
2019-03-12T06:04:54.726Z,6.50
2019-03-12T06:09:45.946Z,5.85
2019-03-12T06:14:37.171Z,5.07
2019-03-12T06:19:29.207Z,5.07
2019-03-12T06:24:20.391Z,5.03
2019-03-12T06:29:11.628Z,5.00
2019-03-12T06:34:02.871Z,4.37
2019-03-12T06:38:58.072Z,5.90
2019-03-12T06:43:49.332Z,5.73
2019-03-12T06:48:42.508Z,6.78
2019-03-12T06:53:49.597Z,6.10
2019-03-12T07:04:02.343Z,6.00
2019-03-12T07:08:58.370Z,5.07
2019-03-12T07:13:49.269Z,6.17
2019-03-12T07:18:40.163Z,5.97
2019-03-12T07:23:37.960Z,6.30
2019-03-12T07:28:29.675Z,6.80
2019-03-12T07:33:27.473Z,6.30
2019-03-12T07:38:19.905Z,7.85
2019-03-12T07:43:12.488Z,6.33
2019-03-12T07:48:03.387Z,5.90
2019-03-12T07:52:58.043Z,6.90
2019-03-12T07:57:48.942Z,7.60
2019-03-12T08:02:40.621Z,7.13
2019-03-12T08:13:00.697Z,9.48
2019-03-12T08:17:55.414Z,8.20
2019-03-12T08:22:47.219Z,9.15
2019-03-12T08:27:44.292Z,8.60
2019-03-12T08:32:35.961Z,7.83
2019-03-12T08:37:29.511Z,7.00
2019-03-12T08:42:27.283Z,7.50
2019-03-12T08:47:24.265Z,7.60
2019-03-12T08:52:27.826Z,6.83
2019-03-12T08:57:25.039Z,8.80
2019-03-12T09:02:16.675Z,7.68
2019-03-12T09:07:10.350Z,8.07
2019-03-12T09:12:06.880Z,6.80
2019-03-12T09:16:58.657Z,6.13
2019-03-12T09:22:05.586Z,6.50
2019-03-12T09:26:59.482Z,6.30
2019-03-12T09:31:55.339Z,5.57
2019-03-12T09:36:52.550Z,5.90
2019-03-12T09:41:49.630Z,6.20
2019-03-12T09:46:50.517Z,5.82
2019-03-12T09:51:44.418Z,3.50
2019-03-12T09:56:36.056Z,3.60
2019-03-12T10:01:33.201Z,2.93
2019-03-12T10:06:24.094Z,2.70
2019-03-12T10:11:16.977Z,2.37
2019-03-12T10:16:22.863Z,2.47
2019-03-12T10:21:19.722Z,2.53
2019-03-12T10:26:13.594Z,2.50
2019-03-12T10:31:07.337Z,1.60
2019-03-12T10:35:58.337Z,2.40
2019-03-12T10:40:50.841Z,1.13
2019-03-12T10:45:46.777Z,2.00
2019-03-12T10:50:37.653Z,1.33
2019-03-12T10:55:29.276Z,1.43
2019-03-12T11:00:20.902Z,1.10
2019-03-12T11:05:11.821Z,1.35
2019-03-12T11:10:04.326Z,1.53
2019-03-12T11:14:55.208Z,1.10
2019-03-12T11:19:46.846Z,1.03
2019-03-12T11:24:38.501Z,0.97
2019-03-12T11:29:29.406Z,1.00
2019-03-12T11:34:20.287Z,1.30
2019-03-12T11:39:11.177Z,0.83
2019-03-12T11:44:02.083Z,1.10
2019-03-12T11:48:53.001Z,1.30
2019-03-12T11:53:43.894Z,1.03
2019-03-12T11:58:35.525Z,1.10
2019-03-12T12:03:27.165Z,1.00
2019-03-12T12:08:18.805Z,1.30
2019-03-12T12:13:09.703Z,1.40
2019-03-12T12:18:01.334Z,1.23
2019-03-12T12:22:52.227Z,1.57
2019-03-12T12:27:43.109Z,1.23
2019-03-12T12:32:34.013Z,1.80
2019-03-12T12:37:25.647Z,1.03
2019-03-12T12:42:16.547Z,1.50
2019-03-12T12:47:08.173Z,1.27
2019-03-12T12:51:59.070Z,1.70
2019-03-12T12:56:49.991Z,1.33
2019-03-12T13:01:40.890Z,1.40
2019-03-12T13:06:31.787Z,1.10
2019-03-12T13:11:22.672Z,1.50
2019-03-12T13:16:24.486Z,1.27
2019-03-12T13:21:05.978Z,1.50
2019-03-12T13:25:56.936Z,1.37
2019-03-12T13:30:47.825Z,1.30
2019-03-12T13:35:38.716Z,1.20
2019-03-12T13:40:29.627Z,1.70
2019-03-12T13:45:22.196Z,1.75
2019-03-12T13:50:13.802Z,1.90
2019-03-12T13:55:06.300Z,1.60
2019-03-12T13:59:57.190Z,1.73
2019-03-12T14:04:48.824Z,2.40
2019-03-12T14:09:40.449Z,2.70
2019-03-12T14:14:32.816Z,2.20
2019-03-12T14:19:24.441Z,2.35
2019-03-12T14:24:16.097Z,2.60
2019-03-12T14:29:06.992Z,2.50
2019-03-12T14:33:57.891Z,2.30
2019-03-12T14:38:48.785Z,2.67
2019-03-12T14:43:39.678Z,2.97
2019-03-12T14:48:39.956Z,2.87
2019-03-12T14:53:30.837Z,3.50
2019-03-12T14:58:21.822Z,3.20
2019-03-12T15:03:12.712Z,2.90
2019-03-12T15:08:03.606Z,3.40
2019-03-12T15:12:54.485Z,2.80
2019-03-12T15:17:46.123Z,3.47
2019-03-12T15:22:37.840Z,3.62
2019-03-12T15:27:29.460Z,4.07
2019-03-12T15:32:20.340Z,2.47
2019-03-12T15:37:11.221Z,3.50
2019-03-12T15:42:02.243Z,2.63
2019-03-12T15:46:53.907Z,3.03
2019-03-12T15:51:44.814Z,2.90
2019-03-12T15:56:36.442Z,2.83
2019-03-12T16:01:28.120Z,2.53
2019-03-12T16:06:19.008Z,3.30
2019-03-12T16:11:10.658Z,2.67
2019-03-12T16:16:01.536Z,2.23
2019-03-12T16:20:53.183Z,3.00
2019-03-12T16:25:44.820Z,2.40
2019-03-12T16:30:36.450Z,2.60
2019-03-12T16:35:28.077Z,3.20
2019-03-12T16:40:18.958Z,2.83
2019-03-12T16:45:09.853Z,3.50
2019-03-12T16:50:01.036Z,2.60
2019-03-12T16:54:52.023Z,2.50
2019-03-12T16:59:42.918Z,2.87
2019-03-12T17:04:33.801Z,2.72
2019-03-12T17:09:25.459Z,2.73
2019-03-12T17:14:16.346Z,2.50
2019-03-12T17:19:07.238Z,2.30
2019-03-12T17:23:58.149Z,2.60
2019-03-12T17:28:49.050Z,2.90
2019-03-12T17:33:39.970Z,2.57
2019-03-12T17:38:45.506Z,2.87
2019-03-12T17:43:21.802Z,2.30
2019-03-12T17:48:12.697Z,2.50
2019-03-12T17:53:03.619Z,2.57
2019-03-12T17:57:54.521Z,2.90
2019-03-12T18:02:46.161Z,3.03
2019-03-12T18:07:37.794Z,3.30
2019-03-12T18:12:29.448Z,3.00
2019-03-12T18:17:21.388Z,2.90
2019-03-12T18:22:11.279Z,2.57
2019-03-12T18:27:02.905Z,2.47
2019-03-12T18:31:53.816Z,3.53
2019-03-12T18:36:45.474Z,2.87
2019-03-12T18:41:36.365Z,3.00
2019-03-12T18:46:27.258Z,2.90
2019-03-12T18:51:18.157Z,2.40
2019-03-12T18:56:09.047Z,3.47
2019-03-12T19:00:59.941Z,2.17
2019-03-12T19:05:50.841Z,2.60
2019-03-12T19:10:41.725Z,2.17
2019-03-12T19:15:32.635Z,2.30
2019-03-12T19:20:23.565Z,2.50
2019-03-12T19:25:15.405Z,2.60
2019-03-12T19:30:09.837Z,2.30
2019-03-12T19:35:00.717Z,1.63
2019-03-12T19:39:51.614Z,2.53
2019-03-12T19:44:42.549Z,2.40
2019-03-12T19:49:33.441Z,2.00
2019-03-12T19:54:25.069Z,2.20
2019-03-12T19:59:16.715Z,2.00
2019-03-12T20:04:08.358Z,2.90
2019-03-12T20:08:59.258Z,3.00
2019-03-12T20:19:39.052Z,2.10
2019-03-12T20:24:39.068Z,1.80
2019-03-12T20:29:34.801Z,2.75
2019-03-12T20:34:28.676Z,2.22
2019-03-12T20:39:24.687Z,2.47
2019-03-12T20:44:27.593Z,2.17
2019-03-12T20:49:22.481Z,2.23
2019-03-12T20:54:19.558Z,2.53
2019-03-12T21:04:50.319Z,2.40
2019-03-12T21:15:34.489Z,2.33
2019-03-12T21:20:34.405Z,2.53
2019-03-12T21:25:27.165Z,2.70
2019-03-12T21:30:18.449Z,1.97
2019-03-12T21:35:09.341Z,2.10
2019-03-12T21:40:00.972Z,2.30
2019-03-12T21:44:52.603Z,2.33
2019-03-12T21:49:44.250Z,2.33
2019-03-12T21:54:36.086Z,2.13
2019-03-12T21:59:27.728Z,2.57
2019-03-12T22:04:19.374Z,2.40
2019-03-12T22:09:11.045Z,1.90
2019-03-12T22:14:01.925Z,2.70
2019-03-12T22:18:52.816Z,2.10
2019-03-12T22:23:45.358Z,1.90
2019-03-12T22:28:36.245Z,2.00
2019-03-12T22:33:27.144Z,2.40
2019-03-12T22:38:18.104Z,2.27
2019-03-12T22:43:09.014Z,2.47
2019-03-12T22:47:59.916Z,2.10
2019-03-12T22:52:50.810Z,2.33
2019-03-12T22:57:41.719Z,2.37
2019-03-12T23:02:33.342Z,2.00
2019-03-12T23:07:24.224Z,2.00
2019-03-12T23:12:16.975Z,1.77
2019-03-12T23:17:06.035Z,1.53
2019-03-12T23:21:56.934Z,1.60
2019-03-12T23:26:48.564Z,1.90
2019-03-12T23:31:40.207Z,1.43
2019-03-12T23:36:31.097Z,2.20
2019-03-12T23:41:23.466Z,2.03
2019-03-12T23:46:15.188Z,1.40
2019-03-12T23:51:06.082Z,2.77
